Time;durP1;ratioP1;P1;durP2;ratioP2;P2;SDS_P1;SDS_P2;PMS_P1;PMS_P2;Temp;Humidity;BMP_temperature;BMP_pressure;BME280_temperature;BME280_humidity;BME280_pressure;Samples;Min_cycle;Max_cycle;Signal;HPM_P1;HPM_P2
2022/05/25 00:00:42;;;;;;;;;;;11.00;99.90;;;;;;5011624;28;19976;-67
2022/05/25 00:03:09;;;;;;;;;;;11.00;99.90;;;;;;5012023;28;19925;-68
2022/05/25 00:05:36;;;;;;;;;;;10.80;99.90;;;;;;5011791;28;19949;-68
2022/05/25 00:08:04;;;;;;;;;;;10.80;99.90;;;;;;5011891;28;19929;-67
2022/05/25 00:10:31;;;;;;;;;;;10.70;99.90;;;;;;5011056;28;20389;-68
2022/05/25 00:12:59;;;;;;;;;;;10.70;99.90;;;;;;5011667;28;19929;-68
2022/05/25 00:15:26;;;;;;;;;;;10.70;99.90;;;;;;5011720;28;19926;-68
2022/05/25 00:17:53;;;;;;;;;;;10.70;99.90;;;;;;5011640;28;20421;-68
2022/05/25 00:20:19;;;;;;;;;;;10.70;99.90;;;;;;5011520;28;19957;-68
2022/05/25 00:22:47;;;;;;;;;;;10.60;99.90;;;;;;5011545;28;19957;-68
2022/05/25 00:25:16;;;;;;;;;;;10.70;99.90;;;;;;5011481;28;19976;-67
2022/05/25 00:27:43;;;;;;;;;;;10.80;99.90;;;;;;5011573;28;19925;-68
2022/05/25 00:30:12;;;;;;;;;;;10.90;99.90;;;;;;5009813;28;19929;-67
2022/05/25 00:32:40;;;;;;;;;;;10.90;99.90;;;;;;5009751;28;19968;-67
2022/05/25 00:35:07;;;;;;;;;;;10.90;99.90;;;;;;5010692;28;19926;-67
2022/05/25 00:37:34;;;;;;;;;;;10.80;99.90;;;;;;5011664;28;19929;-67
2022/05/25 00:40:01;;;;;;;;;;;10.70;99.90;;;;;;5011361;28;20374;-68
2022/05/25 00:42:28;;;;;;;;;;;10.70;99.90;;;;;;5011515;28;19932;-68
2022/05/25 00:44:54;;;;;;;;;;;10.60;99.90;;;;;;5009869;28;20340;-68
2022/05/25 00:47:24;;;;;;;;;;;10.60;99.90;;;;;;5011458;28;19926;-67
2022/05/25 00:49:51;;;;;;;;;;;10.60;99.90;;;;;;5010995;28;20392;-67
2022/05/25 00:52:18;;;;;;;;;;;10.60;99.90;;;;;;5011470;28;19925;-67
2022/05/25 00:54:46;;;;;;;;;;;10.70;99.90;;;;;;5011250;28;20404;-68
2022/05/25 00:57:15;;;;;;;;;;;10.60;99.90;;;;;;5009831;28;19980;-69
2022/05/25 00:59:44;;;;;;;;;;;10.60;99.90;;;;;;5010432;28;19995;-68
2022/05/25 01:02:10;;;;;;;;;;;10.50;99.90;;;;;;5010843;28;19979;-68
2022/05/25 01:04:39;;;;;;;;;;;10.60;99.90;;;;;;5010770;28;19925;-68
2022/05/25 01:07:13;;;;;;;;;;;10.50;99.90;;;;;;5011170;28;20340;-67
2022/05/25 01:09:44;;;;;;;;;;;10.50;99.90;;;;;;5010815;28;20332;-67
2022/05/25 01:12:17;;;;;;;;;;;10.50;99.90;;;;;;5010985;28;19930;-68
2022/05/25 01:14:50;;;;;;;;;;;10.40;99.90;;;;;;5010201;28;19932;-67
2022/05/25 01:17:23;;;;;;;;;;;10.30;99.90;;;;;;5010530;28;20348;-68
2022/05/25 01:20:00;;;;;;;;;;;10.20;99.90;;;;;;5010245;28;19929;-67
2022/05/25 01:22:38;;;;;;;;;;;10.20;99.90;;;;;;5010201;28;20360;-68
2022/05/25 01:25:10;;;;;;;;;;;10.10;99.90;;;;;;5010464;28;19976;-68
2022/05/25 01:27:38;;;;;;;;;;;10.00;99.90;;;;;;5010543;28;19926;-68
2022/05/25 01:30:18;;;;;;;;;;;10.00;99.90;;;;;;5009954;28;19929;-67
2022/05/25 01:32:50;;;;;;;;;;;10.00;99.90;;;;;;5010303;28;19926;-68
2022/05/25 01:35:21;;;;;;;;;;;9.90;99.90;;;;;;5010296;28;20397;-67
2022/05/25 01:37:53;;;;;;;;;;;9.80;99.90;;;;;;5010509;28;19996;-68
2022/05/25 01:40:23;;;;;;;;;;;9.90;99.90;;;;;;5010012;28;19926;-67
2022/05/25 01:42:55;;;;;;;;;;;9.90;99.90;;;;;;5009815;28;20277;-67
2022/05/25 01:45:24;;;;;;;;;;;9.80;99.90;;;;;;5010173;28;19926;-68
2022/05/25 01:47:52;;;;;;;;;;;9.80;99.90;;;;;;5010343;28;19926;-68
2022/05/25 01:50:22;;;;;;;;;;;9.70;99.90;;;;;;5009757;28;19926;-67
2022/05/25 01:52:51;;;;;;;;;;;9.70;99.90;;;;;;5010099;28;19972;-67
2022/05/25 01:55:19;;;;;;;;;;;9.60;99.90;;;;;;5009740;28;19952;-68
2022/05/25 01:57:49;;;;;;;;;;;9.60;99.90;;;;;;5009513;28;20356;-68
2022/05/25 02:00:27;;;;;;;;;;;9.70;99.90;;;;;;5009992;28;19930;-68
2022/05/25 02:05:41;;;;;;;;;;;9.70;99.90;;;;;;5010095;28;19928;-68
2022/05/25 02:08:11;;;;;;;;;;;9.70;99.90;;;;;;5010068;28;19926;-68
2022/05/25 02:10:45;;;;;;;;;;;9.70;99.90;;;;;;5009812;28;19958;-68
2022/05/25 02:13:20;;;;;;;;;;;9.70;99.90;;;;;;5010143;28;19948;-68
2022/05/25 02:15:55;;;;;;;;;;;9.70;99.90;;;;;;5010005;28;20025;-68
2022/05/25 02:18:28;;;;;;;;;;;9.70;99.90;;;;;;5010268;28;19933;-68
2022/05/25 02:20:57;;;;;;;;;;;9.70;99.90;;;;;;5009801;28;19925;-67
2022/05/25 02:23:28;;;;;;;;;;;9.80;99.90;;;;;;5009790;28;19980;-66
2022/05/25 02:25:58;;;;;;;;;;;9.70;99.90;;;;;;5009752;28;19992;-68
2022/05/25 02:28:27;;;;;;;;;;;9.70;99.90;;;;;;5009919;28;20001;-68
2022/05/25 02:30:57;;;;;;;;;;;9.70;99.90;;;;;;5009422;28;19929;-69
2022/05/25 02:33:27;;;;;;;;;;;9.70;99.90;;;;;;5010479;28;20389;-67
2022/05/25 02:35:55;;;;;;;;;;;9.80;99.90;;;;;;5013957;28;19929;-69
2022/05/25 02:38:22;;;;;;;;;;;9.80;99.90;;;;;;5013503;28;19925;-67
2022/05/25 02:40:49;;;;;;;;;;;9.60;99.90;;;;;;5013537;28;19925;-67
2022/05/25 02:43:15;;;;;;;;;;;9.50;99.90;;;;;;5013758;28;20353;-68
2022/05/25 02:45:43;;;;;;;;;;;9.50;99.90;;;;;;5013532;28;19965;-68
2022/05/25 02:48:11;;;;;;;;;;;9.40;99.90;;;;;;5013368;28;20393;-68
2022/05/25 02:50:38;;;;;;;;;;;9.30;99.90;;;;;;5013075;28;19925;-67
2022/05/25 02:53:05;;;;;;;;;;;9.40;99.90;;;;;;5013282;28;19929;-67
2022/05/25 02:55:32;;;;;;;;;;;9.30;99.90;;;;;;5013101;28;19953;-67
2022/05/25 02:57:59;;;;;;;;;;;9.30;99.90;;;;;;5013348;28;20013;-67
2022/05/25 03:00:26;;;;;;;;;;;9.30;99.90;;;;;;5013246;28;19933;-67
2022/05/25 03:02:53;;;;;;;;;;;9.30;99.90;;;;;;5013101;28;20293;-67
2022/05/25 03:05:21;;;;;;;;;;;9.40;99.90;;;;;;5012582;28;19925;-67
2022/05/25 03:07:48;;;;;;;;;;;9.40;99.90;;;;;;5013030;28;20405;-68
2022/05/25 03:10:15;;;;;;;;;;;9.50;99.90;;;;;;5012947;28;20028;-67
2022/05/25 03:12:42;;;;;;;;;;;9.50;99.90;;;;;;5013101;28;19933;-67
2022/05/25 03:15:09;;;;;;;;;;;9.50;99.90;;;;;;5012610;28;19931;-67
2022/05/25 03:17:36;;;;;;;;;;;9.50;99.90;;;;;;5012834;28;19930;-67
2022/05/25 03:20:04;;;;;;;;;;;9.50;99.90;;;;;;5012761;28;20457;-68
2022/05/25 03:22:34;;;;;;;;;;;9.50;99.90;;;;;;5012649;28;20401;-68
2022/05/25 03:25:01;;;;;;;;;;;9.50;99.90;;;;;;5012638;28;19925;-67
2022/05/25 03:27:27;;;;;;;;;;;9.50;99.90;;;;;;5012760;28;19948;-68
2022/05/25 03:29:54;;;;;;;;;;;9.40;99.90;;;;;;5012390;28;19925;-67
2022/05/25 03:32:21;;;;;;;;;;;9.50;99.90;;;;;;5012431;28;19929;-67
2022/05/25 03:34:48;;;;;;;;;;;9.50;99.90;;;;;;5012426;28;20362;-67
2022/05/25 03:37:15;;;;;;;;;;;9.50;99.90;;;;;;5012747;28;19929;-67
2022/05/25 03:39:43;;;;;;;;;;;9.50;99.90;;;;;;5012193;28;20320;-67
2022/05/25 03:42:12;;;;;;;;;;;9.50;99.90;;;;;;5012502;28;19929;-68
2022/05/25 03:44:38;;;;;;;;;;;9.50;99.90;;;;;;5011894;28;19926;-68
2022/05/25 03:47:05;;;;;;;;;;;9.60;99.90;;;;;;5012332;28;20009;-67
2022/05/25 03:49:32;;;;;;;;;;;9.60;99.90;;;;;;5012074;28;20359;-68
2022/05/25 03:51:59;;;;;;;;;;;9.60;99.90;;;;;;5012344;28;19925;-69
2022/05/25 03:54:26;;;;;;;;;;;9.60;99.90;;;;;;5012250;28;19932;-68
2022/05/25 03:56:54;;;;;;;;;;;9.60;99.90;;;;;;5012051;28;19960;-69
2022/05/25 03:59:21;;;;;;;;;;;9.60;99.90;;;;;;5011772;28;19925;-69
2022/05/25 04:01:47;;;;;;;;;;;9.60;99.90;;;;;;5012324;28;19933;-68
2022/05/25 04:04:14;;;;;;;;;;;9.60;99.90;;;;;;5011891;28;19926;-67
2022/05/25 04:06:41;;;;;;;;;;;9.70;99.90;;;;;;5012242;28;20348;-68
2022/05/25 04:09:09;;;;;;;;;;;9.70;99.90;;;;;;5011669;28;19937;-67
2022/05/25 04:11:36;;;;;;;;;;;9.70;99.90;;;;;;5011875;28;19925;-68
2022/05/25 04:14:04;;;;;;;;;;;9.70;99.90;;;;;;5011340;28;19930;-68
2022/05/25 04:16:31;;;;;;;;;;;9.70;99.90;;;;;;5011715;28;19930;-67
2022/05/25 04:18:58;;;;;;;;;;;9.70;99.90;;;;;;5011636;28;19926;-68
2022/05/25 04:21:25;;;;;;;;;;;9.80;99.90;;;;;;5011677;28;19961;-67
2022/05/25 04:23:52;;;;;;;;;;;9.80;99.90;;;;;;5011452;28;19929;-68
2022/05/25 04:26:19;;;;;;;;;;;9.80;99.90;;;;;;5011701;28;19926;-68
2022/05/25 04:28:45;;;;;;;;;;;9.90;99.90;;;;;;5011343;28;19925;-67
2022/05/25 04:31:14;;;;;;;;;;;10.00;99.90;;;;;;5011566;28;19925;-67
2022/05/25 04:33:41;;;;;;;;;;;10.00;99.90;;;;;;5011319;28;19930;-66
2022/05/25 04:36:07;;;;;;;;;;;10.10;99.90;;;;;;5011555;28;20397;-68
2022/05/25 04:38:34;;;;;;;;;;;10.10;99.90;;;;;;5011816;28;19965;-67
2022/05/25 04:41:02;;;;;;;;;;;10.10;99.90;;;;;;5011033;28;20024;-67
2022/05/25 04:43:29;;;;;;;;;;;10.10;99.90;;;;;;5010990;28;19956;-68
2022/05/25 04:45:56;;;;;;;;;;;10.20;99.90;;;;;;5011362;28;19929;-67
2022/05/25 04:48:24;;;;;;;;;;;10.30;99.90;;;;;;5011508;28;19933;-67
2022/05/25 04:50:52;;;;;;;;;;;10.40;99.90;;;;;;5011057;28;19925;-67
2022/05/25 04:53:20;;;;;;;;;;;10.40;99.90;;;;;;5011352;28;19930;-67
2022/05/25 04:58:33;;;;;;;;;;;10.40;99.90;;;;;;5010306;28;20270;-68
2022/05/25 05:01:00;;;;;;;;;;;10.40;99.90;;;;;;5010610;28;19925;-67
2022/05/25 05:03:29;;;;;;;;;;;10.50;99.90;;;;;;5013428;28;19925;-68
2022/05/25 05:05:56;;;;;;;;;;;10.60;99.90;;;;;;5011063;28;19973;-68
2022/05/25 05:08:23;;;;;;;;;;;10.70;99.90;;;;;;5010939;28;20352;-67
2022/05/25 05:10:50;;;;;;;;;;;10.70;99.90;;;;;;5010671;28;20066;-67
2022/05/25 05:13:17;;;;;;;;;;;10.70;99.90;;;;;;5010835;28;20339;-69
2022/05/25 05:15:45;;;;;;;;;;;10.80;99.90;;;;;;5010342;28;19926;-67
2022/05/25 05:18:12;;;;;;;;;;;10.90;99.90;;;;;;5010675;28;19937;-67
2022/05/25 05:21:18;;;;;;;;;;;11.00;99.90;;;;;;4931825;29;20062;-68
2022/05/25 05:23:45;;;;;;;;;;;11.10;99.90;;;;;;4931579;29;19927;-67
2022/05/25 05:26:13;;;;;;;;;;;11.20;99.90;;;;;;4960242;28;19925;-67
2022/05/25 05:28:40;;;;;;;;;;;11.30;99.90;;;;;;4990779;28;19968;-68
2022/05/25 05:31:08;;;;;;;;;;;11.30;99.90;;;;;;4990348;28;19930;-67
2022/05/25 05:33:34;;;;;;;;;;;11.40;99.90;;;;;;4990768;28;20405;-67
2022/05/25 05:36:07;;;;;;;;;;;11.50;99.90;;;;;;4993756;28;20340;-68
2022/05/25 05:38:39;;;;;;;;;;;11.50;99.90;;;;;;5030202;28;19929;-67
2022/05/25 05:41:06;;;;;;;;;;;11.60;99.90;;;;;;5029796;28;19925;-67
2022/05/25 05:43:33;;;;;;;;;;;11.60;99.90;;;;;;5029782;28;19948;-66
2022/05/25 05:46:00;;;;;;;;;;;11.70;99.90;;;;;;5030383;28;20389;-65
2022/05/25 05:48:28;;;;;;;;;;;11.80;99.90;;;;;;5030041;28;19925;-66
2022/05/25 05:50:56;;;;;;;;;;;11.80;99.90;;;;;;5029929;28;19979;-65
2022/05/25 05:53:23;;;;;;;;;;;11.80;99.90;;;;;;5029910;28;20392;-65
2022/05/25 05:55:52;;;;;;;;;;;11.90;99.90;;;;;;5029790;28;19932;-68
2022/05/25 05:58:19;;;;;;;;;;;12.00;99.90;;;;;;5029724;28;19925;-68
2022/05/25 06:00:45;;;;;;;;;;;12.10;99.90;;;;;;5029800;28;19972;-67
2022/05/25 06:03:13;;;;;;;;;;;12.10;99.90;;;;;;5030038;28;19964;-68
2022/05/25 06:05:40;;;;;;;;;;;12.20;99.90;;;;;;5029475;28;19925;-68
2022/05/25 06:08:08;;;;;;;;;;;12.20;99.90;;;;;;5030099;28;19924;-67
2022/05/25 06:10:35;;;;;;;;;;;12.30;99.90;;;;;;5028482;28;19961;-67
2022/05/25 06:13:03;;;;;;;;;;;12.30;99.90;;;;;;5014292;28;19934;-68
2022/05/25 06:20:58;;;;;;;;;;;12.60;99.90;;;;;;5013464;28;19928;-67
2022/05/25 06:23:25;;;;;;;;;;;12.60;99.90;;;;;;5013721;28;19926;-67
2022/05/25 06:25:52;;;;;;;;;;;12.70;99.90;;;;;;5014296;28;19972;-68
2022/05/25 06:28:20;;;;;;;;;;;12.70;99.90;;;;;;5013967;28;20401;-67
2022/05/25 06:30:47;;;;;;;;;;;12.80;99.90;;;;;;5013864;28;19979;-67
2022/05/25 06:33:14;;;;;;;;;;;12.80;99.90;;;;;;5013655;28;19937;-67
2022/05/25 06:35:40;;;;;;;;;;;12.90;99.90;;;;;;5013364;28;19925;-68
2022/05/25 06:38:08;;;;;;;;;;;13.00;99.90;;;;;;5013607;28;19984;-66
2022/05/25 06:40:35;;;;;;;;;;;13.10;99.90;;;;;;5012993;28;19930;-66
2022/05/25 06:43:01;;;;;;;;;;;13.10;99.90;;;;;;5013363;28;19948;-67
2022/05/25 06:45:30;;;;;;;;;;;13.20;99.90;;;;;;5013226;28;19980;-68
2022/05/25 06:47:57;;;;;;;;;;;13.30;99.90;;;;;;5013614;28;19929;-68
2022/05/25 06:50:25;;;;;;;;;;;13.50;99.90;;;;;;5013136;28;19925;-67
2022/05/25 06:52:51;;;;;;;;;;;13.50;99.90;;;;;;5013429;28;19980;-67
2022/05/25 06:55:18;;;;;;;;;;;13.60;99.90;;;;;;5013359;28;19925;-67
2022/05/25 06:57:45;;;;;;;;;;;13.60;99.90;;;;;;5013483;28;20367;-68
2022/05/25 07:00:13;;;;;;;;;;;13.70;99.90;;;;;;5011898;28;19972;-67
2022/05/25 07:02:41;;;;;;;;;;;13.80;99.90;;;;;;5013155;28;20379;-67
2022/05/25 07:05:08;;;;;;;;;;;13.90;99.90;;;;;;5012620;28;19964;-68
2022/05/25 07:07:35;;;;;;;;;;;14.10;99.90;;;;;;5012955;28;20328;-67
2022/05/25 07:10:02;;;;;;;;;;;14.10;99.90;;;;;;5013160;28;19925;-68
2022/05/25 07:12:31;;;;;;;;;;;14.20;99.90;;;;;;5033063;28;19925;-67
2022/05/25 07:14:58;;;;;;;;;;;14.20;99.90;;;;;;5032740;28;19925;-68
2022/05/25 07:17:25;;;;;;;;;;;14.20;99.90;;;;;;5032858;28;19929;-68
2022/05/25 07:19:53;;;;;;;;;;;14.20;99.90;;;;;;5031313;28;19925;-67
2022/05/25 07:22:20;;;;;;;;;;;14.30;99.90;;;;;;5032411;28;19925;-67
2022/05/25 07:24:47;;;;;;;;;;;14.30;99.90;;;;;;5032360;28;19932;-67
2022/05/25 07:27:13;;;;;;;;;;;14.30;99.90;;;;;;5032858;28;19931;-68
2022/05/25 07:29:41;;;;;;;;;;;14.40;99.90;;;;;;5032279;28;19933;-67
2022/05/25 07:32:09;;;;;;;;;;;14.60;99.90;;;;;;5032631;28;20456;-68
2022/05/25 07:34:38;;;;;;;;;;;14.70;99.90;;;;;;5031915;28;19925;-66
2022/05/25 07:37:10;;;;;;;;;;;14.50;99.90;;;;;;5032361;28;20400;-68
2022/05/25 07:39:41;;;;;;;;;;;14.60;99.90;;;;;;5031844;28;19964;-67
2022/05/25 07:42:11;;;;;;;;;;;14.70;99.90;;;;;;5032374;28;20408;-68
2022/05/25 07:44:40;;;;;;;;;;;14.70;99.90;;;;;;5032000;28;20392;-67
2022/05/25 07:47:07;;;;;;;;;;;14.80;99.90;;;;;;5032141;28;20355;-68
2022/05/25 07:49:33;;;;;;;;;;;14.80;99.90;;;;;;5031688;28;19987;-68
2022/05/25 07:52:02;;;;;;;;;;;14.80;99.90;;;;;;5032194;28;20363;-68
2022/05/25 07:54:30;;;;;;;;;;;14.90;99.90;;;;;;5031851;28;19948;-68
2022/05/25 07:56:59;;;;;;;;;;;15.00;99.90;;;;;;5032069;28;19925;-68
2022/05/25 07:59:26;;;;;;;;;;;15.10;99.90;;;;;;5031928;28;19979;-68
2022/05/25 08:07:26;;;;;;;;;;;15.30;99.90;;;;;;5031810;28;19925;-69
2022/05/25 08:09:56;;;;;;;;;;;15.40;99.90;;;;;;5031523;28;20388;-68
2022/05/25 08:12:24;;;;;;;;;;;15.50;99.90;;;;;;5031586;28;19932;-67
2022/05/25 08:14:51;;;;;;;;;;;15.40;99.90;;;;;;5031760;28;19929;-67
2022/05/25 08:17:17;;;;;;;;;;;15.40;99.90;;;;;;5031620;28;19929;-68
2022/05/25 08:19:44;;;;;;;;;;;15.60;99.90;;;;;;5031186;28;20355;-65
2022/05/25 08:22:11;;;;;;;;;;;15.60;99.90;;;;;;5031764;28;19948;-66
2022/05/25 08:24:38;;;;;;;;;;;15.60;99.90;;;;;;5031283;28;19928;-66
2022/05/25 08:27:06;;;;;;;;;;;15.70;99.90;;;;;;5031289;28;20385;-65
2022/05/25 08:29:33;;;;;;;;;;;15.60;99.90;;;;;;5031175;28;20033;-66
2022/05/25 08:32:00;;;;;;;;;;;15.70;99.90;;;;;;5031234;28;19928;-65
2022/05/25 08:34:27;;;;;;;;;;;15.80;99.90;;;;;;5030853;28;20347;-65
2022/05/25 08:36:54;;;;;;;;;;;15.90;99.90;;;;;;5031131;28;19925;-65
2022/05/25 08:39:21;;;;;;;;;;;15.90;99.90;;;;;;5030691;28;20335;-66
2022/05/25 08:41:49;;;;;;;;;;;16.00;99.90;;;;;;5030996;28;19929;-66
2022/05/25 08:44:19;;;;;;;;;;;16.10;99.90;;;;;;5030913;28;19928;-65
2022/05/25 08:46:46;;;;;;;;;;;16.10;99.90;;;;;;5031118;28;19949;-66
2022/05/25 08:49:15;;;;;;;;;;;16.20;99.90;;;;;;5030823;28;19925;-66
2022/05/25 08:51:43;;;;;;;;;;;16.20;99.90;;;;;;5030778;28;19925;-66
2022/05/25 08:54:10;;;;;;;;;;;16.20;99.90;;;;;;5030472;28;20020;-66
2022/05/25 08:56:39;;;;;;;;;;;16.30;99.90;;;;;;5030950;28;19929;-66
2022/05/25 08:59:09;;;;;;;;;;;16.50;99.90;;;;;;5030555;28;19949;-66
2022/05/25 09:01:42;;;;;;;;;;;16.50;99.90;;;;;;5030845;28;19925;-66
2022/05/25 09:04:10;;;;;;;;;;;16.70;99.90;;;;;;5030322;28;19998;-67
2022/05/25 09:06:42;;;;;;;;;;;16.70;99.90;;;;;;5030449;28;19929;-66
2022/05/25 09:09:12;;;;;;;;;;;16.80;99.90;;;;;;5030437;28;19979;-66
2022/05/25 09:11:40;;;;;;;;;;;16.70;99.90;;;;;;5016897;28;19934;-67
2022/05/25 09:14:11;;;;;;;;;;;16.90;99.90;;;;;;5010744;28;20000;-66
2022/05/25 09:16:40;;;;;;;;;;;16.70;99.90;;;;;;5010723;28;19932;-65
2022/05/25 09:19:09;;;;;;;;;;;17.10;99.90;;;;;;5010194;28;20007;-66
2022/05/25 09:21:37;;;;;;;;;;;17.10;99.90;;;;;;5010888;28;20348;-66
2022/05/25 09:24:08;;;;;;;;;;;17.40;99.90;;;;;;5010565;28;19929;-67
2022/05/25 09:26:34;;;;;;;;;;;17.50;99.90;;;;;;5010595;28;20474;-66
2022/05/25 09:29:03;;;;;;;;;;;17.40;99.90;;;;;;5010331;28;19999;-67
2022/05/25 09:31:34;;;;;;;;;;;17.60;99.90;;;;;;5010301;28;20024;-66
2022/05/25 09:34:05;;;;;;;;;;;17.70;99.90;;;;;;5010430;28;19925;-66
2022/05/25 09:36:35;;;;;;;;;;;17.90;99.90;;;;;;5010535;28;19929;-67
2022/05/25 09:39:04;;;;;;;;;;;17.90;99.90;;;;;;5010152;28;19925;-67
2022/05/25 09:41:32;;;;;;;;;;;17.40;99.90;;;;;;5010429;28;19932;-66
2022/05/25 09:44:00;;;;;;;;;;;17.20;99.90;;;;;;5009452;28;19960;-66
2022/05/25 09:46:28;;;;;;;;;;;17.00;99.90;;;;;;5010666;28;19925;-67
2022/05/25 09:48:58;;;;;;;;;;;17.10;99.90;;;;;;5010131;28;19925;-66
2022/05/25 09:51:31;;;;;;;;;;;17.30;99.90;;;;;;5010528;28;19932;-66
2022/05/25 09:54:01;;;;;;;;;;;17.40;99.90;;;;;;5009959;28;20364;-66
2022/05/25 09:56:30;;;;;;;;;;;17.60;99.90;;;;;;5010111;28;19965;-66
2022/05/25 09:58:58;;;;;;;;;;;17.70;99.90;;;;;;5010035;28;19932;-66
2022/05/25 10:01:28;;;;;;;;;;;17.80;99.90;;;;;;5010326;28;20348;-65
2022/05/25 10:03:55;;;;;;;;;;;17.60;99.90;;;;;;5009703;28;19933;-65
2022/05/25 10:06:23;;;;;;;;;;;17.80;99.90;;;;;;5010279;28;20382;-67
2022/05/25 10:08:53;;;;;;;;;;;18.10;99.90;;;;;;5009858;28;20024;-64
2022/05/25 10:11:31;;;;;;;;;;;18.10;99.90;;;;;;5020992;28;20374;-66
2022/05/25 10:14:14;;;;;;;;;;;18.00;99.90;;;;;;5029653;28;19936;-66
2022/05/25 10:16:40;;;;;;;;;;;18.00;99.90;;;;;;5029779;28;19925;-66
2022/05/25 10:19:11;;;;;;;;;;;17.90;99.90;;;;;;5029590;28;20081;-66
2022/05/25 10:21:38;;;;;;;;;;;18.20;99.90;;;;;;5029608;28;19969;-66
2022/05/25 10:24:15;;;;;;;;;;;18.20;99.90;;;;;;5029628;28;20450;-66
2022/05/25 10:26:45;;;;;;;;;;;18.00;99.90;;;;;;5029960;28;19925;-66
2022/05/25 10:29:13;;;;;;;;;;;17.90;99.90;;;;;;5029680;28;19933;-65
2022/05/25 10:37:17;;;;;;;;;;;18.40;99.90;;;;;;5030038;28;19925;-66
2022/05/25 10:39:48;;;;;;;;;;;18.30;99.90;;;;;;5060323;22;19947;-64
2022/05/25 10:42:17;;;;;;;;;;;18.40;99.90;;;;;;5069663;28;20310;-67
2022/05/25 10:44:48;;;;;;;;;;;18.80;99.90;;;;;;5070528;28;20475;-66
2022/05/25 10:47:19;;;;;;;;;;;19.10;99.90;;;;;;5069661;28;20026;-66
2022/05/25 10:49:46;;;;;;;;;;;19.20;99.90;;;;;;5068958;28;20011;-67
2022/05/25 10:52:19;;;;;;;;;;;19.40;99.90;;;;;;5069344;28;20466;-66
2022/05/25 10:54:50;;;;;;;;;;;19.10;99.90;;;;;;5071923;28;20028;-66
2022/05/25 10:57:28;;;;;;;;;;;19.30;99.90;;;;;;5072969;28;19924;-67
2022/05/25 11:00:00;;;;;;;;;;;19.40;99.90;;;;;;5072758;28;19956;-67
2022/05/25 11:02:34;;;;;;;;;;;19.30;99.90;;;;;;5072802;28;20030;-67
2022/05/25 11:05:05;;;;;;;;;;;19.30;99.90;;;;;;5073990;28;20467;-66
2022/05/25 11:07:33;;;;;;;;;;;19.10;99.90;;;;;;5074219;28;19928;-67
2022/05/25 11:10:08;;;;;;;;;;;18.70;99.90;;;;;;5072190;28;19936;-67
2022/05/25 11:12:41;;;;;;;;;;;18.70;99.90;;;;;;5073957;28;19956;-67
2022/05/25 11:15:13;;;;;;;;;;;18.60;99.90;;;;;;5072347;28;20414;-67
2022/05/25 11:17:48;;;;;;;;;;;18.80;99.90;;;;;;5072562;28;20399;-67
2022/05/25 11:20:19;;;;;;;;;;;18.90;99.90;;;;;;5072378;28;20015;-67
2022/05/25 11:22:53;;;;;;;;;;;18.90;99.90;;;;;;5072735;28;19972;-67
2022/05/25 11:25:36;;;;;;;;;;;18.80;99.90;;;;;;5072359;28;19928;-66
2022/05/25 11:28:11;;;;;;;;;;;19.00;99.90;;;;;;5072518;28;20340;-67
2022/05/25 11:30:41;;;;;;;;;;;18.80;99.90;;;;;;5072071;28;19924;-67
2022/05/25 11:33:13;;;;;;;;;;;19.10;99.90;;;;;;5072250;28;20382;-67
2022/05/25 11:35:46;;;;;;;;;;;19.20;99.90;;;;;;5072048;28;20421;-67
2022/05/25 11:38:19;;;;;;;;;;;19.10;99.90;;;;;;5072317;28;19929;-67
2022/05/25 11:40:52;;;;;;;;;;;18.80;99.90;;;;;;5072070;28;19925;-67
2022/05/25 11:43:37;;;;;;;;;;;19.40;99.90;;;;;;5071978;28;19985;-67
2022/05/25 11:46:08;;;;;;;;;;;20.30;99.90;;;;;;5041613;28;19989;-66
2022/05/25 11:48:40;;;;;;;;;;;21.70;99.90;;;;;;5071950;28;19924;-67
2022/05/25 11:51:12;;;;;;;;;;;22.50;99.90;;;;;;5071774;28;19925;-67
2022/05/25 11:53:45;;;;;;;;;;;23.90;99.90;;;;;;5073054;28;19947;-67
2022/05/25 11:56:23;;;;;;;;;;;24.30;99.90;;;;;;5071930;28;19933;-67
2022/05/25 11:58:57;;;;;;;;;;;23.80;99.90;;;;;;5071425;28;19932;-65
2022/05/25 12:01:31;;;;;;;;;;;24.50;99.90;;;;;;5071785;28;19978;-67
2022/05/25 12:04:15;;;;;;;;;;;23.90;99.90;;;;;;5071433;28;19932;-67
2022/05/25 12:06:54;;;;;;;;;;;23.40;99.90;;;;;;5071256;28;20357;-67
2022/05/25 12:09:27;;;;;;;;;;;23.20;99.90;;;;;;5071438;28;19936;-67
2022/05/25 12:11:59;;;;;;;;;;;24.00;99.90;;;;;;5071848;28;19924;-67
2022/05/25 12:14:34;;;;;;;;;;;23.70;99.90;;;;;;5071471;28;19924;-67
2022/05/25 12:17:07;;;;;;;;;;;22.40;99.90;;;;;;5071348;28;19967;-67
2022/05/25 12:19:35;;;;;;;;;;;21.40;99.90;;;;;;5070991;28;19924;-67
2022/05/25 12:22:04;;;;;;;;;;;20.70;99.90;;;;;;5071489;28;19929;-66
2022/05/25 12:24:33;;;;;;;;;;;20.60;99.90;;;;;;5070906;28;20357;-67
2022/05/25 12:27:04;;;;;;;;;;;20.90;99.90;;;;;;5071548;28;19955;-67
2022/05/25 12:29:33;;;;;;;;;;;21.60;99.90;;;;;;5070799;28;20395;-67
2022/05/25 12:32:00;;;;;;;;;;;22.00;99.90;;;;;;5071247;28;19925;-67
2022/05/25 12:34:30;;;;;;;;;;;23.30;99.90;;;;;;5070685;28;19924;-67
2022/05/25 12:36:58;;;;;;;;;;;23.20;99.90;;;;;;5071171;28;19925;-67
2022/05/25 12:39:53;;;;;;;;;;;23.20;99.90;;;;;;5070691;28;20308;-67
2022/05/25 12:42:35;;;;;;;;;;;23.00;99.90;;;;;;5071024;28;19978;-66
2022/05/25 12:50:43;;;;;;;;;;;21.30;99.90;;;;;;5070655;28;19921;-67
2022/05/25 12:53:27;;;;;;;;;;;21.50;99.90;;;;;;5070704;28;19994;-67
2022/05/25 12:55:55;;;;;;;;;;;23.30;99.90;;;;;;5070610;28;19924;-67
2022/05/25 12:58:40;;;;;;;;;;;23.70;99.90;;;;;;5070556;28;19924;-67
2022/05/25 13:01:09;;;;;;;;;;;22.80;99.90;;;;;;5056834;28;19977;-67
2022/05/25 13:03:40;;;;;;;;;;;22.10;99.90;;;;;;5070199;28;20284;-66
2022/05/25 13:06:07;;;;;;;;;;;21.40;99.90;;;;;;5069453;28;19928;-67
2022/05/25 13:09:10;;;;;;;;;;;21.10;99.90;;;;;;5070273;28;19928;-67
2022/05/25 13:11:42;;;;;;;;;;;22.20;99.90;;;;;;5070509;28;19924;-68
2022/05/25 13:14:24;;;;;;;;;;;23.90;99.90;;;;;;5070150;28;19925;-66
2022/05/25 13:16:53;;;;;;;;;;;24.20;99.90;;;;;;5069612;28;20035;-66
2022/05/25 13:19:20;;;;;;;;;;;24.10;99.90;;;;;;5069129;28;19925;-67
2022/05/25 13:22:03;;;;;;;;;;;23.10;99.90;;;;;;5070673;28;19925;-67
2022/05/25 13:24:36;;;;;;;;;;;23.90;99.90;;;;;;5069783;28;20284;-68
2022/05/25 13:27:11;;;;;;;;;;;24.40;99.90;;;;;;5070342;28;19924;-67
2022/05/25 13:29:42;;;;;;;;;;;24.30;99.90;;;;;;5069837;28;19974;-66
2022/05/25 13:32:14;;;;;;;;;;;23.00;99.90;;;;;;5070192;28;19971;-67
2022/05/25 13:34:42;;;;;;;;;;;22.30;99.90;;;;;;5069971;28;19929;-67
2022/05/25 13:37:13;;;;;;;;;;;23.60;99.90;;;;;;5070403;28;19924;-67
2022/05/25 13:39:41;;;;;;;;;;;23.80;99.90;;;;;;5069863;28;19924;-67
2022/05/25 13:42:10;;;;;;;;;;;23.50;99.90;;;;;;5070256;28;19928;-67
2022/05/25 13:44:41;;;;;;;;;;;22.00;99.90;;;;;;5070265;28;20384;-67
2022/05/25 13:47:08;;;;;;;;;;;22.10;99.90;;;;;;5070013;28;19990;-67
2022/05/25 13:49:38;;;;;;;;;;;23.40;99.90;;;;;;5069808;28;19924;-67
2022/05/25 13:52:11;;;;;;;;;;;24.70;99.90;;;;;;5070172;28;19964;-67
2022/05/25 13:54:39;;;;;;;;;;;24.90;99.90;;;;;;5069478;28;19924;-66
2022/05/25 13:57:08;;;;;;;;;;;24.30;99.90;;;;;;5069970;28;19925;-67
2022/05/25 13:59:36;;;;;;;;;;;24.70;99.90;;;;;;5069659;28;19924;-67
2022/05/25 14:02:08;;;;;;;;;;;24.80;99.90;;;;;;5069926;28;20307;-66
2022/05/25 14:04:37;;;;;;;;;;;24.70;99.90;;;;;;5069736;28;19924;-67
2022/05/25 14:07:04;;;;;;;;;;;24.20;99.90;;;;;;5069719;28;19928;-67
2022/05/25 14:12:18;;;;;;;;;;;25.10;99.90;;;;;;5069458;28;19920;-67
2022/05/25 14:14:50;;;;;;;;;;;25.50;99.90;;;;;;5069529;28;19956;-67
2022/05/25 14:17:21;;;;;;;;;;;26.00;99.90;;;;;;5069663;28;19978;-67
2022/05/25 14:19:50;;;;;;;;;;;25.40;99.90;;;;;;5069240;28;20031;-67
2022/05/25 14:22:18;;;;;;;;;;;24.60;99.90;;;;;;5069897;28;19924;-67
2022/05/25 14:24:46;;;;;;;;;;;24.50;99.90;;;;;;5069308;28;19924;-67
2022/05/25 14:27:18;;;;;;;;;;;24.20;99.90;;;;;;5069326;28;19935;-67
2022/05/25 14:29:45;;;;;;;;;;;24.50;99.90;;;;;;5071047;28;19924;-67
2022/05/25 14:32:13;;;;;;;;;;;24.60;99.90;;;;;;5073454;28;19932;-67
2022/05/25 14:34:41;;;;;;;;;;;25.10;99.90;;;;;;5073248;28;19925;-67
2022/05/25 14:37:10;;;;;;;;;;;25.50;99.90;;;;;;5073505;28;19925;-67
2022/05/25 14:39:37;;;;;;;;;;;25.70;99.90;;;;;;5073198;28;19925;-67
2022/05/25 14:42:07;;;;;;;;;;;24.70;99.90;;;;;;5073310;28;19924;-66
2022/05/25 14:44:39;;;;;;;;;;;23.90;99.90;;;;;;5072778;28;19924;-67
2022/05/25 14:47:18;;;;;;;;;;;24.10;99.90;;;;;;5073485;28;20388;-67
2022/05/25 14:50:02;;;;;;;;;;;23.30;99.90;;;;;;5072887;28;20391;-67
2022/05/25 14:52:34;;;;;;;;;;;23.30;99.90;;;;;;5072892;28;19925;-67
2022/05/25 14:55:03;;;;;;;;;;;24.00;99.90;;;;;;5072771;28;19928;-67
2022/05/25 14:57:30;;;;;;;;;;;23.00;99.70;;;;;;5072914;28;19927;-67
2022/05/25 14:59:58;;;;;;;;;;;22.30;99.90;;;;;;5072739;28;19928;-67
2022/05/25 15:02:27;;;;;;;;;;;22.20;99.90;;;;;;5072966;28;19974;-67